createdAt,value
2017-11-11T00:00:02.737Z,0
2017-11-11T00:01:12.046Z,0
2017-11-11T00:02:21.017Z,0
2017-11-11T00:03:30.329Z,0
2017-11-11T00:04:40.000Z,0
2017-11-11T00:05:49.322Z,0
2017-11-11T00:06:58.322Z,0
2017-11-11T00:08:07.645Z,0
2017-11-11T00:09:17.280Z,0
2017-11-11T00:10:26.584Z,0
2017-11-11T00:11:35.560Z,0
2017-11-11T00:12:44.867Z,0
2017-11-11T00:13:53.865Z,0
2017-11-11T00:15:03.190Z,0
2017-11-11T00:16:12.842Z,0
2017-11-11T00:17:22.150Z,0
2017-11-11T00:18:31.470Z,0
2017-11-11T00:19:40.778Z,0
2017-11-11T00:20:50.090Z,0
2017-11-11T00:22:00.043Z,0
2017-11-11T00:23:08.733Z,0
2017-11-11T00:24:17.755Z,0
2017-11-11T00:25:26.727Z,0
2017-11-11T00:26:35.707Z,0
2017-11-11T00:27:45.011Z,0
2017-11-11T00:28:53.980Z,0
2017-11-11T00:30:03.295Z,0
2017-11-11T00:31:12.329Z,0
2017-11-11T00:32:21.983Z,0
2017-11-11T00:33:30.946Z,0
2017-11-11T00:34:39.917Z,0
2017-11-11T00:35:49.878Z,0
2017-11-11T00:36:59.174Z,0
2017-11-11T00:38:08.480Z,0
2017-11-11T00:39:17.444Z,0
2017-11-11T00:40:27.100Z,0
2017-11-11T00:41:36.401Z,0
2017-11-11T00:42:45.710Z,0
2017-11-11T00:43:55.358Z,0
2017-11-11T00:45:04.998Z,0
2017-11-11T00:46:14.965Z,0
2017-11-11T00:47:24.604Z,0
2017-11-11T00:48:34.239Z,0
2017-11-11T00:49:43.550Z,0
2017-11-11T00:50:52.633Z,0
2017-11-11T00:52:02.941Z,0
2017-11-11T00:53:12.245Z,0
2017-11-11T00:54:22.207Z,0
2017-11-11T00:55:31.176Z,0
2017-11-11T00:56:40.173Z,0
2017-11-11T00:57:49.149Z,0
2017-11-11T00:58:58.132Z,0
2017-11-11T01:00:07.781Z,0
2017-11-11T01:01:16.754Z,0
2017-11-11T01:02:26.382Z,0
2017-11-11T01:03:35.688Z,0
2017-11-11T01:04:45.002Z,0
2017-11-11T01:05:54.635Z,0
2017-11-11T01:07:03.943Z,0
2017-11-11T01:08:13.305Z,0
2017-11-11T01:09:23.251Z,0
2017-11-11T01:10:31.919Z,0
2017-11-11T01:11:40.887Z,0
2017-11-11T01:12:50.187Z,0
2017-11-11T01:13:59.182Z,0
2017-11-11T01:15:08.521Z,0
2017-11-11T01:16:17.832Z,0
2017-11-11T01:17:27.458Z,0
2017-11-11T01:18:37.094Z,0
2017-11-11T01:19:47.071Z,0
2017-11-11T01:20:55.719Z,0
2017-11-11T01:22:05.340Z,0
2017-11-11T01:23:14.004Z,0
2017-11-11T01:24:22.645Z,0
2017-11-11T01:25:31.613Z,0
2017-11-11T01:26:40.591Z,0
2017-11-11T01:27:50.556Z,0
2017-11-11T01:28:59.868Z,0
2017-11-11T01:30:09.169Z,0
2017-11-11T01:31:18.482Z,0
2017-11-11T01:32:27.784Z,0
2017-11-11T01:33:38.068Z,0
2017-11-11T01:34:47.040Z,0
2017-11-11T01:35:56.731Z,0
2017-11-11T01:37:05.691Z,0
2017-11-11T01:38:14.663Z,0
2017-11-11T01:39:23.995Z,0
2017-11-11T01:40:33.645Z,0
2017-11-11T01:41:43.278Z,0
2017-11-11T01:42:52.585Z,0
2017-11-11T01:44:01.902Z,0
2017-11-11T01:45:11.866Z,0
2017-11-11T01:46:20.840Z,0
2017-11-11T01:47:29.474Z,0
2017-11-11T01:48:38.777Z,0
2017-11-11T01:49:48.781Z,0
2017-11-11T01:50:57.754Z,0
2017-11-11T01:52:07.385Z,0
2017-11-11T01:53:16.364Z,0
2017-11-11T01:54:25.330Z,0
2017-11-11T01:55:34.304Z,0
2017-11-11T01:56:43.282Z,0
2017-11-11T01:57:52.951Z,0
2017-11-11T01:59:02.619Z,0
2017-11-11T02:00:11.928Z,0
2017-11-11T02:01:21.253Z,0
2017-11-11T02:02:30.555Z,0
2017-11-11T02:03:39.847Z,0
2017-11-11T02:04:49.145Z,0
2017-11-11T02:05:58.436Z,0
2017-11-11T02:07:07.741Z,0
2017-11-11T02:08:17.040Z,0
2017-11-11T02:09:26.667Z,0
2017-11-11T02:10:35.978Z,0
2017-11-11T02:11:45.940Z,0
2017-11-11T02:12:54.914Z,0
2017-11-11T02:14:04.225Z,0
2017-11-11T02:15:13.205Z,0
2017-11-11T02:16:21.844Z,0
2017-11-11T02:17:30.821Z,0
2017-11-11T02:18:40.127Z,0
2017-11-11T02:19:49.095Z,0
2017-11-11T02:20:58.390Z,0
2017-11-11T02:22:08.033Z,0
2017-11-11T02:23:17.665Z,0
2017-11-11T02:24:26.668Z,0
2017-11-11T02:25:35.967Z,0
2017-11-11T02:26:45.268Z,0
2017-11-11T02:27:54.573Z,0
2017-11-11T02:29:03.548Z,0
2017-11-11T02:30:13.534Z,0
2017-11-11T02:31:23.164Z,0
2017-11-11T02:32:33.456Z,0
2017-11-11T02:33:43.101Z,0
2017-11-11T02:34:52.737Z,0
2017-11-11T02:36:03.018Z,0
2017-11-11T02:37:11.990Z,0
2017-11-11T02:38:21.296Z,0
2017-11-11T02:39:30.264Z,0
2017-11-11T02:40:39.228Z,0
2017-11-11T02:41:49.195Z,0
2017-11-11T02:42:59.145Z,0
2017-11-11T02:44:09.116Z,0
2017-11-11T02:45:19.282Z,0
2017-11-11T02:46:28.578Z,0
2017-11-11T02:47:37.553Z,0
2017-11-11T02:48:46.853Z,0
2017-11-11T02:49:56.139Z,0
2017-11-11T02:51:05.470Z,0
2017-11-11T02:52:14.767Z,0
2017-11-11T02:53:24.401Z,0
2017-11-11T02:54:34.038Z,0
2017-11-11T02:55:43.672Z,0
2017-11-11T02:56:53.299Z,0
2017-11-11T02:58:02.609Z,0
2017-11-11T02:59:12.275Z,0
2017-11-11T03:00:22.586Z,0
2017-11-11T03:01:31.890Z,0
2017-11-11T03:02:41.524Z,0
2017-11-11T03:03:51.167Z,0
2017-11-11T03:05:00.786Z,0
2017-11-11T03:06:10.764Z,0
2017-11-11T03:07:20.756Z,0
2017-11-11T03:08:30.056Z,0
2017-11-11T03:09:39.993Z,0
2017-11-11T03:10:49.632Z,0
2017-11-11T03:11:59.306Z,0
2017-11-11T03:13:08.950Z,0
2017-11-11T03:14:19.242Z,0
2017-11-11T03:15:28.548Z,0
2017-11-11T03:16:37.507Z,0
2017-11-11T03:17:46.807Z,0
2017-11-11T03:18:56.779Z,0
2017-11-11T03:20:06.401Z,0
2017-11-11T03:21:15.363Z,0
2017-11-11T03:22:24.322Z,0
2017-11-11T03:23:34.010Z,0
2017-11-11T03:24:43.644Z,0
2017-11-11T03:25:52.638Z,0
2017-11-11T03:27:02.277Z,0
2017-11-11T03:28:12.235Z,0
2017-11-11T03:29:21.226Z,0
2017-11-11T03:30:30.545Z,0
2017-11-11T03:31:40.197Z,0
2017-11-11T03:32:49.511Z,0
2017-11-11T03:33:58.824Z,0
2017-11-11T03:35:08.462Z,0
2017-11-11T03:36:17.427Z,0
2017-11-11T03:37:27.394Z,0
2017-11-11T03:38:37.025Z,0
2017-11-11T03:39:46.978Z,0
2017-11-11T03:40:56.604Z,0
2017-11-11T03:42:05.242Z,0
2017-11-11T03:43:14.875Z,0
2017-11-11T03:44:23.881Z,0
2017-11-11T03:45:33.512Z,0
2017-11-11T03:46:42.844Z,0
2017-11-11T03:47:52.111Z,0
2017-11-11T03:49:02.079Z,0
2017-11-11T03:50:11.445Z,0
2017-11-11T03:51:20.756Z,0
2017-11-11T03:52:29.722Z,0
2017-11-11T03:53:38.706Z,0
2017-11-11T03:54:48.344Z,0
2017-11-11T03:55:57.974Z,0
2017-11-11T03:57:07.279Z,0
2017-11-11T03:58:16.913Z,0
2017-11-11T03:59:26.575Z,0
2017-11-11T04:00:35.855Z,0
2017-11-11T04:01:45.486Z,0
2017-11-11T04:02:54.810Z,0
2017-11-11T04:04:03.783Z,0
2017-11-11T04:05:13.397Z,0
2017-11-11T04:06:23.052Z,0
2017-11-11T04:07:32.704Z,0
2017-11-11T04:08:42.356Z,0
2017-11-11T04:09:51.681Z,0
2017-11-11T04:11:00.644Z,0
2017-11-11T04:12:09.940Z,0
2017-11-11T04:13:19.600Z,0
2017-11-11T04:14:28.571Z,0
2017-11-11T04:15:37.550Z,0
2017-11-11T04:16:46.858Z,0
2017-11-11T04:17:56.491Z,0
2017-11-11T04:19:06.121Z,0
2017-11-11T04:20:14.772Z,0
2017-11-11T04:21:23.740Z,0
2017-11-11T04:22:33.359Z,0
2017-11-11T04:23:42.333Z,0
2017-11-11T04:24:51.658Z,0
2017-11-11T04:26:00.954Z,0
2017-11-11T04:27:09.594Z,0
2017-11-11T04:28:18.900Z,0
2017-11-11T04:29:27.551Z,0
2017-11-11T04:30:36.535Z,0
2017-11-11T04:31:45.850Z,0
2017-11-11T04:32:54.821Z,0
2017-11-11T04:34:04.121Z,0
2017-11-11T04:35:13.427Z,0
2017-11-11T04:36:23.045Z,0
2017-11-11T04:37:32.693Z,0
2017-11-11T04:38:41.990Z,0
2017-11-11T04:39:51.621Z,0
2017-11-11T04:41:01.576Z,0
2017-11-11T04:42:10.540Z,0
2017-11-11T04:43:19.499Z,0
2017-11-11T04:44:28.797Z,0
2017-11-11T04:45:37.776Z,0
2017-11-11T04:46:47.406Z,0
2017-11-11T04:47:56.694Z,0
2017-11-11T04:49:06.323Z,0
2017-11-11T04:50:15.301Z,0
2017-11-11T04:51:25.268Z,0
2017-11-11T04:52:34.911Z,0
2017-11-11T04:53:44.221Z,0
2017-11-11T04:54:53.544Z,0
2017-11-11T04:56:03.521Z,0
2017-11-11T04:57:13.480Z,0
2017-11-11T04:58:22.453Z,0
2017-11-11T04:59:32.096Z,0
2017-11-11T05:00:41.400Z,0
2017-11-11T05:01:50.032Z,0
2017-11-11T05:02:59.030Z,0
2017-11-11T05:04:07.693Z,0
2017-11-11T05:05:16.681Z,0
2017-11-11T05:06:26.635Z,0
2017-11-11T05:07:35.954Z,0
2017-11-11T05:08:45.267Z,0
2017-11-11T05:09:54.570Z,0
2017-11-11T05:11:03.579Z,0
2017-11-11T05:12:12.876Z,0
2017-11-11T05:13:22.178Z,0
2017-11-11T05:14:31.484Z,0
2017-11-11T05:15:40.801Z,0
2017-11-11T05:16:50.449Z,0
2017-11-11T05:18:00.402Z,0
2017-11-11T05:19:09.702Z,0
2017-11-11T05:20:19.019Z,0
2017-11-11T05:21:28.332Z,0
2017-11-11T05:22:37.641Z,0
2017-11-11T05:23:46.641Z,0
2017-11-11T05:24:56.307Z,0
2017-11-11T05:26:05.611Z,0
2017-11-11T05:27:14.249Z,0
2017-11-11T05:28:23.875Z,0
2017-11-11T05:29:32.846Z,0
2017-11-11T05:30:42.800Z,0
2017-11-11T05:31:52.426Z,0
2017-11-11T05:33:01.729Z,0
2017-11-11T05:34:10.684Z,0
2017-11-11T05:35:19.340Z,0
2017-11-11T05:36:28.292Z,0
2017-11-11T05:37:37.998Z,0
2017-11-11T05:38:47.636Z,0
2017-11-11T05:39:56.957Z,0
2017-11-11T05:41:06.634Z,0
2017-11-11T05:42:15.949Z,0
2017-11-11T05:43:25.899Z,0
2017-11-11T05:44:35.223Z,0
2017-11-11T05:45:44.844Z,0
2017-11-11T05:46:54.486Z,0
2017-11-11T05:48:03.443Z,0
2017-11-11T05:49:13.070Z,0
2017-11-11T05:50:21.711Z,0
2017-11-11T05:51:30.686Z,0
2017-11-11T05:52:39.975Z,0
2017-11-11T05:53:48.618Z,0
2017-11-11T05:54:57.931Z,0
2017-11-11T05:56:07.234Z,0
2017-11-11T05:57:16.537Z,0
2017-11-11T05:58:25.863Z,0
2017-11-11T05:59:35.160Z,0
2017-11-11T06:00:44.138Z,0
2017-11-11T06:01:53.772Z,0
2017-11-11T06:03:03.076Z,0
2017-11-11T06:04:12.387Z,0
2017-11-11T06:05:21.027Z,0
2017-11-11T06:06:30.645Z,0
2017-11-11T06:07:40.264Z,0
2017-11-11T06:08:49.248Z,0
2017-11-11T06:09:58.229Z,0
2017-11-11T06:11:07.518Z,0
2017-11-11T06:12:16.488Z,0
2017-11-11T06:13:25.496Z,0
2017-11-11T06:14:35.130Z,0
2017-11-11T06:15:43.779Z,0
2017-11-11T06:16:53.775Z,0
2017-11-11T06:18:03.736Z,0
2017-11-11T06:19:13.413Z,0
2017-11-11T06:20:22.729Z,0
2017-11-11T06:21:32.421Z,0
2017-11-11T06:22:42.045Z,0
2017-11-11T06:23:51.355Z,0
2017-11-11T06:25:01.324Z,4
2017-11-11T06:26:11.315Z,0
2017-11-11T06:27:20.605Z,4
2017-11-11T06:28:29.578Z,0
2017-11-11T06:29:38.886Z,4
2017-11-11T06:30:48.519Z,4
2017-11-11T06:31:58.150Z,8
2017-11-11T06:33:07.810Z,8
2017-11-11T06:34:17.134Z,8
2017-11-11T06:35:26.452Z,8
2017-11-11T06:36:35.793Z,8
2017-11-11T06:37:45.473Z,12
2017-11-11T06:38:54.792Z,16
2017-11-11T06:40:04.419Z,16
2017-11-11T06:41:13.415Z,16
2017-11-11T06:42:23.717Z,20
2017-11-11T06:43:32.397Z,24
2017-11-11T06:44:41.703Z,24
2017-11-11T06:45:51.331Z,24
2017-11-11T06:46:59.986Z,28
2017-11-11T06:48:09.617Z,28
2017-11-11T06:49:19.321Z,28
2017-11-11T06:50:28.948Z,32
2017-11-11T06:51:38.255Z,36
2017-11-11T06:52:48.206Z,36
2017-11-11T06:53:57.845Z,40
2017-11-11T06:55:07.473Z,48
2017-11-11T06:56:16.524Z,56
2017-11-11T06:57:25.816Z,60
2017-11-11T06:58:34.786Z,68
2017-11-11T06:59:44.115Z,64
2017-11-11T07:00:54.064Z,60
2017-11-11T07:02:03.373Z,56
2017-11-11T07:03:13.003Z,56
2017-11-11T07:04:22.146Z,48
2017-11-11T07:05:31.451Z,52
2017-11-11T07:06:40.104Z,52
2017-11-11T07:07:49.426Z,56
2017-11-11T07:08:58.407Z,60
2017-11-11T07:10:08.131Z,60
2017-11-11T07:11:17.116Z,68
2017-11-11T07:12:27.146Z,72
2017-11-11T07:13:36.449Z,80
2017-11-11T07:14:45.751Z,84
2017-11-11T07:15:55.064Z,84
2017-11-11T07:17:04.388Z,88
2017-11-11T07:18:14.417Z,92
2017-11-11T07:19:24.412Z,104
2017-11-11T07:20:34.164Z,116
2017-11-11T07:21:43.826Z,128
2017-11-11T07:22:53.130Z,124
2017-11-11T07:24:03.087Z,116
2017-11-11T07:25:12.065Z,112
2017-11-11T07:26:21.058Z,112
2017-11-11T07:27:30.363Z,120
2017-11-11T07:28:39.686Z,136
2017-11-11T07:29:49.386Z,144
2017-11-11T07:30:58.692Z,148
2017-11-11T07:32:08.740Z,156
2017-11-11T07:33:17.392Z,172
2017-11-11T07:34:26.725Z,188
2017-11-11T07:35:36.049Z,192
2017-11-11T07:36:44.742Z,200
2017-11-11T07:37:54.377Z,200
2017-11-11T07:39:03.677Z,212
2017-11-11T07:40:12.654Z,216
2017-11-11T07:41:21.955Z,216
2017-11-11T07:42:31.579Z,224
2017-11-11T07:43:41.235Z,220
2017-11-11T07:44:50.217Z,228
2017-11-11T07:45:59.548Z,248
2017-11-11T07:47:08.869Z,272
2017-11-11T07:48:17.511Z,280
2017-11-11T07:49:27.144Z,288
2017-11-11T07:50:36.111Z,308
2017-11-11T07:51:45.747Z,340
2017-11-11T07:52:55.746Z,372
2017-11-11T07:54:05.443Z,384
2017-11-11T07:55:14.427Z,388
2017-11-11T07:56:24.089Z,392
2017-11-11T07:57:32.747Z,412
2017-11-11T07:58:42.088Z,420
2017-11-11T07:59:51.750Z,384
2017-11-11T08:01:01.390Z,328
2017-11-11T08:02:10.676Z,316
2017-11-11T08:03:20.660Z,316
2017-11-11T08:04:30.289Z,316
2017-11-11T08:05:39.597Z,328
2017-11-11T08:06:49.269Z,352
2017-11-11T08:07:58.589Z,352
2017-11-11T08:09:08.223Z,352
2017-11-11T08:10:17.243Z,332
2017-11-11T08:11:26.208Z,352
2017-11-11T08:12:35.882Z,364
2017-11-11T08:13:45.201Z,352
2017-11-11T08:14:54.833Z,372
2017-11-11T08:16:04.140Z,420
2017-11-11T08:17:13.140Z,428
2017-11-11T08:18:22.162Z,416
2017-11-11T08:19:31.461Z,416
2017-11-11T08:20:40.472Z,404
2017-11-11T08:21:49.459Z,392
2017-11-11T08:22:59.418Z,348
2017-11-11T08:24:08.394Z,308
2017-11-11T08:25:17.380Z,288
2017-11-11T08:26:26.702Z,264
2017-11-11T08:27:36.002Z,256
2017-11-11T08:28:45.323Z,272
2017-11-11T08:29:54.634Z,280
2017-11-11T08:31:04.285Z,292
2017-11-11T08:32:13.267Z,312
2017-11-11T08:33:22.257Z,320
2017-11-11T08:34:31.568Z,364
2017-11-11T08:35:40.549Z,412
2017-11-11T08:36:50.183Z,420
2017-11-11T08:37:59.158Z,420
2017-11-11T08:39:08.221Z,416
2017-11-11T08:40:17.227Z,416
2017-11-11T08:41:26.869Z,428
2017-11-11T08:42:36.503Z,408
2017-11-11T08:43:45.812Z,360
2017-11-11T08:44:55.180Z,336
2017-11-11T08:46:04.827Z,340
2017-11-11T08:47:14.154Z,356
2017-11-11T08:48:23.480Z,356
2017-11-11T08:49:33.114Z,344
2017-11-11T08:50:42.770Z,376
2017-11-11T08:51:52.410Z,388
2017-11-11T08:53:01.772Z,396
2017-11-11T08:54:11.660Z,416
2017-11-11T08:55:21.299Z,440
2017-11-11T08:56:30.295Z,452
2017-11-11T08:57:39.277Z,476
2017-11-11T08:58:48.904Z,504
2017-11-11T08:59:58.218Z,496
2017-11-11T09:01:07.186Z,452
2017-11-11T09:02:17.147Z,424
2017-11-11T09:03:27.441Z,444
2017-11-11T09:04:37.394Z,456
2017-11-11T09:05:47.365Z,416
2017-11-11T09:06:57.333Z,420
2017-11-11T09:08:06.638Z,428
2017-11-11T09:09:16.008Z,444
2017-11-11T09:10:24.994Z,452
2017-11-11T09:11:34.980Z,464
2017-11-11T09:12:44.942Z,468
2017-11-11T09:13:54.577Z,428
2017-11-11T09:15:04.231Z,408
2017-11-11T09:16:13.964Z,388
2017-11-11T09:17:23.661Z,392
2017-11-11T09:18:32.669Z,372
2017-11-11T09:19:41.356Z,440
2017-11-11T09:20:50.342Z,576
2017-11-11T09:22:00.033Z,560
2017-11-11T09:23:09.363Z,532
2017-11-11T09:24:18.708Z,512
2017-11-11T09:25:27.715Z,528
2017-11-11T09:26:36.715Z,512
2017-11-11T09:27:45.684Z,472
2017-11-11T09:28:56.000Z,440
2017-11-11T09:30:06.003Z,504
2017-11-11T09:31:15.722Z,560
2017-11-11T09:32:25.034Z,580
2017-11-11T09:33:34.682Z,560
2017-11-11T09:34:44.000Z,564
2017-11-11T09:35:53.331Z,596
2017-11-11T09:37:02.982Z,588
2017-11-11T09:38:12.695Z,508
2017-11-11T09:39:21.707Z,484
2017-11-11T09:40:30.732Z,484
2017-11-11T09:41:39.702Z,452
2017-11-11T09:42:49.358Z,436
2017-11-11T09:43:58.995Z,428
2017-11-11T09:45:08.308Z,416
2017-11-11T09:46:18.001Z,448
2017-11-11T09:47:27.645Z,476
2017-11-11T09:48:37.294Z,460
2017-11-11T09:49:46.331Z,476
2017-11-11T09:50:55.723Z,480
2017-11-11T09:52:04.717Z,464
2017-11-11T09:53:14.419Z,488
2017-11-11T09:54:23.079Z,540
2017-11-11T09:55:32.740Z,588
2017-11-11T09:56:42.066Z,616
2017-11-11T09:57:51.802Z,592
2017-11-11T09:59:01.507Z,564
2017-11-11T10:00:11.259Z,596
2017-11-11T10:01:20.948Z,636
2017-11-11T10:02:30.627Z,608
2017-11-11T10:03:40.274Z,572
2017-11-11T10:04:49.734Z,564
2017-11-11T10:05:59.517Z,588
2017-11-11T10:07:08.818Z,612
2017-11-11T10:08:18.806Z,600
2017-11-11T10:09:27.503Z,592
2017-11-11T10:10:37.505Z,572
2017-11-11T10:11:47.472Z,564
2017-11-11T10:12:56.777Z,576
2017-11-11T10:14:05.773Z,592
2017-11-11T10:15:14.745Z,592
2017-11-11T10:16:24.042Z,564
2017-11-11T10:17:34.018Z,556
2017-11-11T10:18:43.341Z,560
2017-11-11T10:19:52.664Z,536
2017-11-11T10:21:01.329Z,548
2017-11-11T10:22:10.313Z,552
2017-11-11T10:23:19.618Z,576
2017-11-11T10:24:28.263Z,592
2017-11-11T10:25:37.575Z,592
2017-11-11T10:26:46.214Z,624
2017-11-11T10:27:55.866Z,644
2017-11-11T10:29:05.038Z,660
2017-11-11T10:30:14.935Z,680
2017-11-11T10:31:24.362Z,652
2017-11-11T10:32:34.177Z,628
2017-11-11T10:33:43.498Z,588
2017-11-11T10:34:52.463Z,576
2017-11-11T10:36:01.145Z,604
2017-11-11T10:37:11.420Z,580
2017-11-11T10:38:21.419Z,580
2017-11-11T10:39:31.078Z,552
2017-11-11T10:40:41.430Z,512
2017-11-11T10:41:50.847Z,480
2017-11-11T10:43:01.190Z,484
2017-11-11T10:44:10.175Z,484
2017-11-11T10:45:20.216Z,452
2017-11-11T10:46:29.534Z,476
2017-11-11T10:47:39.187Z,548
2017-11-11T10:48:48.499Z,572
2017-11-11T10:49:57.461Z,588
2017-11-11T10:51:07.103Z,588
2017-11-11T10:52:16.407Z,540
2017-11-11T10:53:26.044Z,488
2017-11-11T10:54:35.406Z,520
2017-11-11T10:55:45.047Z,472
2017-11-11T10:56:54.036Z,584
2017-11-11T10:58:03.017Z,568
2017-11-11T10:59:12.705Z,480
2017-11-11T11:00:22.332Z,596
2017-11-11T11:01:31.983Z,748
2017-11-11T11:02:41.284Z,740
2017-11-11T11:03:50.594Z,604
2017-11-11T11:04:59.909Z,532
2017-11-11T11:06:08.884Z,620
2017-11-11T11:07:18.577Z,684
2017-11-11T11:08:28.225Z,740
2017-11-11T11:09:37.853Z,744
2017-11-11T11:10:47.509Z,656
2017-11-11T11:11:56.817Z,632
2017-11-11T11:13:06.124Z,612
2017-11-11T11:14:14.770Z,588
2017-11-11T11:15:23.422Z,620
2017-11-11T11:16:32.725Z,616
2017-11-11T11:17:41.709Z,608
2017-11-11T11:18:51.682Z,584
2017-11-11T11:20:01.005Z,596
2017-11-11T11:21:10.360Z,544
2017-11-11T11:22:20.049Z,532
2017-11-11T11:23:29.385Z,544
2017-11-11T11:24:38.389Z,524
2017-11-11T11:25:48.096Z,504
2017-11-11T11:26:58.091Z,568
2017-11-11T11:28:07.062Z,612
2017-11-11T11:29:16.376Z,608
2017-11-11T11:30:26.028Z,528
2017-11-11T11:31:35.658Z,484
2017-11-11T11:32:44.961Z,492
2017-11-11T11:33:54.267Z,500
2017-11-11T11:35:04.225Z,504
2017-11-11T11:36:13.520Z,508
2017-11-11T11:37:23.503Z,552
2017-11-11T11:38:32.819Z,600
2017-11-11T11:39:42.444Z,620
2017-11-11T11:40:52.413Z,612
2017-11-11T11:42:01.396Z,584
2017-11-11T11:43:10.368Z,596
2017-11-11T11:44:20.320Z,620
2017-11-11T11:45:29.285Z,596
2017-11-11T11:46:39.265Z,576
2017-11-11T11:47:48.652Z,672
2017-11-11T11:48:58.393Z,748
2017-11-11T11:50:07.706Z,684
2017-11-11T11:51:17.817Z,648
2017-11-11T11:52:26.793Z,684
2017-11-11T11:53:36.514Z,632
2017-11-11T11:54:45.530Z,600
2017-11-11T11:55:54.865Z,572
2017-11-11T11:57:04.311Z,560
2017-11-11T11:58:13.924Z,600
2017-11-11T11:59:23.915Z,644
2017-11-11T12:00:33.543Z,664
2017-11-11T12:01:43.524Z,700
2017-11-11T12:02:52.498Z,636
2017-11-11T12:04:02.137Z,620
2017-11-11T12:05:11.620Z,604
2017-11-11T12:06:21.540Z,604
2017-11-11T12:07:30.866Z,640
2017-11-11T12:08:40.538Z,612
2017-11-11T12:09:50.841Z,592
2017-11-11T12:11:00.153Z,572
2017-11-11T12:12:09.810Z,604
2017-11-11T12:13:18.822Z,624
2017-11-11T12:14:28.136Z,616
2017-11-11T12:15:37.122Z,668
2017-11-11T12:16:46.778Z,656
2017-11-11T12:17:56.096Z,680
2017-11-11T12:19:05.093Z,596
2017-11-11T12:20:14.731Z,524
2017-11-11T12:21:25.029Z,524
2017-11-11T12:22:33.669Z,492
2017-11-11T12:23:43.682Z,504
2017-11-11T12:24:54.574Z,588
2017-11-11T12:26:04.604Z,676
2017-11-11T12:27:13.260Z,672
2017-11-11T12:28:22.916Z,572
2017-11-11T12:29:32.236Z,500
2017-11-11T12:30:41.233Z,520
2017-11-11T12:31:50.886Z,560
2017-11-11T12:33:00.852Z,524
2017-11-11T12:34:10.175Z,512
2017-11-11T12:35:19.458Z,516
2017-11-11T12:36:29.459Z,524
2017-11-11T12:37:39.416Z,500
2017-11-11T12:38:49.106Z,476
2017-11-11T12:39:58.421Z,508
2017-11-11T12:41:07.766Z,484
2017-11-11T12:42:16.752Z,452
2017-11-11T12:43:25.723Z,424
2017-11-11T12:44:35.734Z,452
2017-11-11T12:45:44.722Z,416
2017-11-11T12:46:54.367Z,444
2017-11-11T12:48:03.998Z,452
2017-11-11T12:49:13.295Z,404
2017-11-11T12:50:22.635Z,400
2017-11-11T12:51:31.934Z,456
2017-11-11T12:52:40.670Z,436
2017-11-11T12:53:50.039Z,444
2017-11-11T12:54:59.334Z,380
2017-11-11T12:56:09.324Z,348
2017-11-11T12:57:18.962Z,400
2017-11-11T12:58:28.919Z,496
2017-11-11T12:59:38.234Z,548
2017-11-11T13:00:47.592Z,548
2017-11-11T13:01:56.972Z,620
2017-11-11T13:03:07.277Z,560
2017-11-11T13:04:16.938Z,524
2017-11-11T13:05:26.948Z,572
2017-11-11T13:06:36.592Z,540
2017-11-11T13:07:45.942Z,496
2017-11-11T13:08:54.934Z,540
2017-11-11T13:10:04.589Z,496
2017-11-11T13:11:14.325Z,420
2017-11-11T13:12:24.009Z,384
2017-11-11T13:13:33.024Z,388
2017-11-11T13:14:42.013Z,392
2017-11-11T13:15:51.006Z,400
2017-11-11T13:17:00.008Z,392
2017-11-11T13:18:09.708Z,348
2017-11-11T13:19:19.018Z,272
2017-11-11T13:20:28.320Z,272
2017-11-11T13:21:37.631Z,264
2017-11-11T13:22:47.598Z,268
2017-11-11T13:23:56.573Z,312
2017-11-11T13:25:05.552Z,328
2017-11-11T13:26:14.548Z,300
2017-11-11T13:27:23.851Z,260
2017-11-11T13:28:32.849Z,212
2017-11-11T13:29:41.497Z,196
2017-11-11T13:30:51.175Z,220
2017-11-11T13:31:59.842Z,228
2017-11-11T13:33:09.512Z,212
2017-11-11T13:34:18.828Z,212
2017-11-11T13:35:27.833Z,196
2017-11-11T13:36:37.466Z,200
2017-11-11T13:37:46.787Z,204
2017-11-11T13:38:56.109Z,184
2017-11-11T13:40:05.096Z,188
2017-11-11T13:41:14.402Z,212
2017-11-11T13:42:23.380Z,236
2017-11-11T13:43:32.676Z,256
2017-11-11T13:44:42.310Z,272
2017-11-11T13:45:51.614Z,300
2017-11-11T13:47:01.242Z,332
2017-11-11T13:48:10.242Z,316
2017-11-11T13:49:20.205Z,280
2017-11-11T13:50:29.507Z,268
2017-11-11T13:51:39.154Z,256
2017-11-11T13:52:48.471Z,256
2017-11-11T13:54:00.511Z,228
2017-11-11T13:55:13.185Z,216
2017-11-11T13:56:26.680Z,196
2017-11-11T13:57:36.542Z,216
2017-11-11T13:58:45.579Z,236
2017-11-11T13:59:54.895Z,252
2017-11-11T14:01:04.859Z,220
2017-11-11T14:02:14.173Z,268
2017-11-11T14:03:23.502Z,276
2017-11-11T14:04:32.818Z,236
2017-11-11T14:05:42.180Z,244
2017-11-11T14:06:51.819Z,280
2017-11-11T14:08:01.109Z,252
2017-11-11T14:09:10.429Z,248
2017-11-11T14:10:19.736Z,216
2017-11-11T14:11:29.397Z,220
2017-11-11T14:12:38.705Z,196
2017-11-11T14:13:48.667Z,188
2017-11-11T14:14:58.318Z,180
2017-11-11T14:16:07.954Z,180
2017-11-11T14:17:17.632Z,200
2017-11-11T14:18:26.279Z,272
2017-11-11T14:19:35.272Z,320
2017-11-11T14:20:44.915Z,364
2017-11-11T14:21:53.886Z,268
2017-11-11T14:23:03.896Z,188
2017-11-11T14:24:13.229Z,196
2017-11-11T14:25:22.869Z,184
2017-11-11T14:26:32.198Z,136
2017-11-11T14:27:41.842Z,116
2017-11-11T14:28:50.839Z,160
2017-11-11T14:29:59.820Z,156
2017-11-11T14:31:09.485Z,160
2017-11-11T14:32:19.126Z,156
2017-11-11T14:33:28.782Z,156
2017-11-11T14:34:38.096Z,152
2017-11-11T14:35:47.739Z,120
2017-11-11T14:36:57.715Z,84
2017-11-11T14:38:07.040Z,88
2017-11-11T14:39:15.717Z,112
2017-11-11T14:40:25.700Z,196
2017-11-11T14:41:35.341Z,184
2017-11-11T14:42:45.124Z,212
2017-11-11T14:43:55.722Z,168
2017-11-11T14:45:05.811Z,180
2017-11-11T14:46:15.177Z,188
2017-11-11T14:47:24.531Z,184
2017-11-11T14:48:33.654Z,180
2017-11-11T14:49:43.313Z,176
2017-11-11T14:50:52.649Z,144
2017-11-11T14:52:02.017Z,136
2017-11-11T14:53:10.723Z,156
2017-11-11T14:54:20.060Z,160
2017-11-11T14:55:28.875Z,160
2017-11-11T14:56:38.189Z,152
2017-11-11T14:57:47.854Z,124
2017-11-11T14:58:57.167Z,152
2017-11-11T15:00:06.349Z,152
2017-11-11T15:01:16.324Z,148
2017-11-11T15:02:25.652Z,156
2017-11-11T15:03:34.943Z,140
2017-11-11T15:04:44.188Z,128
2017-11-11T15:05:53.512Z,100
2017-11-11T15:07:02.515Z,112
2017-11-11T15:08:12.000Z,120
2017-11-11T15:09:21.618Z,100
2017-11-11T15:10:30.627Z,92
2017-11-11T15:11:39.971Z,68
2017-11-11T15:12:49.605Z,68
2017-11-11T15:13:58.913Z,80
2017-11-11T15:15:08.216Z,80
2017-11-11T15:16:17.189Z,80
2017-11-11T15:17:26.527Z,76
2017-11-11T15:18:35.823Z,76
2017-11-11T15:19:46.244Z,68
2017-11-11T15:20:54.924Z,72
2017-11-11T15:22:04.560Z,64
2017-11-11T15:23:13.898Z,56
2017-11-11T15:24:23.533Z,48
2017-11-11T15:25:32.177Z,56
2017-11-11T15:26:41.161Z,56
2017-11-11T15:27:50.133Z,56
2017-11-11T15:28:59.797Z,52
2017-11-11T15:30:09.129Z,52
2017-11-11T15:31:17.813Z,48
2017-11-11T15:32:26.784Z,52
2017-11-11T15:33:35.476Z,48
2017-11-11T15:34:45.115Z,40
2017-11-11T15:35:53.777Z,40
2017-11-11T15:37:03.735Z,40
2017-11-11T15:38:12.712Z,32
2017-11-11T15:39:21.695Z,24
2017-11-11T15:40:30.995Z,20
2017-11-11T15:41:39.961Z,24
2017-11-11T15:42:49.277Z,24
2017-11-11T15:43:57.919Z,16
2017-11-11T15:45:07.571Z,16
2017-11-11T15:46:16.548Z,16
2017-11-11T15:47:26.201Z,16
2017-11-11T15:48:35.838Z,12
2017-11-11T15:49:44.808Z,12
2017-11-11T15:50:53.776Z,8
2017-11-11T15:52:02.760Z,12
2017-11-11T15:53:11.761Z,8
2017-11-11T15:54:21.069Z,8
2017-11-11T15:55:30.042Z,4
2017-11-11T15:56:39.344Z,4
2017-11-11T15:57:48.658Z,4
2017-11-11T15:58:57.645Z,4
2017-11-11T16:00:06.958Z,4
2017-11-11T16:01:15.954Z,4
2017-11-11T16:02:25.610Z,4
2017-11-11T16:03:35.243Z,4
2017-11-11T16:04:44.604Z,0
2017-11-11T16:05:54.893Z,0
2017-11-11T16:07:04.187Z,0
2017-11-11T16:08:13.507Z,0
2017-11-11T16:09:22.152Z,0
2017-11-11T16:10:30.794Z,0
2017-11-11T16:11:40.445Z,0
2017-11-11T16:12:50.090Z,0
2017-11-11T16:14:00.049Z,0
2017-11-11T16:15:09.345Z,0
2017-11-11T16:16:18.355Z,0
2017-11-11T16:17:27.351Z,4
2017-11-11T16:18:36.361Z,4
2017-11-11T16:19:46.007Z,4
2017-11-11T16:20:55.350Z,0
2017-11-11T16:22:04.685Z,0
2017-11-11T16:23:14.644Z,0
2017-11-11T16:24:24.613Z,0
2017-11-11T16:25:33.282Z,0
2017-11-11T16:26:42.301Z,0
2017-11-11T16:27:51.300Z,0